Terminal Aerodrome Forecast
Issued by NWS

Home | Current Version | Previous Version | Text Only | Print | Product List | Glossary On
Versions: 1 2 3 4 5 6 7 8 9 10 11 12 13 14 15 16 17 18
000
FTUS44 KLIX 121100
TAFMCB
TAF
KMCB 121128Z 1212/1312 33003KT P6SM SKC
     FM121500 36005KT P6SM SCT050 PROB30 1222/1301 VRB25KT 2SM TSRA
      BKN040CB
     FM130100 VRB03KT P6SM SCT110 SCT250=

USA.gov is the U.S. government's official web portal to all federal, state and local government web resources and services.